createdAt,value
2022-11-01T00:10:37.576Z,40.60
2022-11-01T00:21:04.919Z,44.70
2022-11-01T00:31:32.293Z,41.00
2022-11-01T00:41:59.709Z,44.40
2022-11-01T00:52:26.996Z,42.20
2022-11-01T01:02:54.397Z,44.30
2022-11-01T01:13:22.101Z,43.60
2022-11-01T01:23:51.452Z,36.50
2022-11-01T01:34:19.183Z,46.10
2022-11-01T01:45:11.991Z,45.10
2022-11-01T01:55:44.087Z,38.80
2022-11-01T02:06:13.837Z,35.10
2022-11-01T02:16:53.564Z,37.70
2022-11-01T02:27:28.800Z,28.40
2022-11-01T02:38:02.628Z,21.40
2022-11-01T02:48:30.392Z,23.10
2022-11-01T02:58:59.091Z,16.60
2022-11-01T03:09:26.869Z,19.40
2022-11-01T03:20:00.692Z,18.30
2022-11-01T03:30:30.628Z,17.90
2022-11-01T03:41:01.575Z,16.90
2022-11-01T03:51:28.953Z,15.40
2022-11-01T04:01:56.386Z,13.80
2022-11-01T04:12:23.827Z,11.20
2022-11-01T04:22:51.135Z,14.80
2022-11-01T04:33:18.551Z,11.80
2022-11-01T04:43:46.009Z,11.70
2022-11-01T04:54:13.419Z,11.50
2022-11-01T05:04:40.669Z,11.00
2022-11-01T05:15:10.683Z,12.20
2022-11-01T05:25:38.442Z,12.70
2022-11-01T05:36:06.381Z,10.80
2022-11-01T05:46:33.647Z,11.10
2022-11-01T05:57:00.972Z,12.90
2022-11-01T06:07:28.756Z,12.60
2022-11-01T06:17:59.872Z,11.20
2022-11-01T06:28:27.559Z,12.70
2022-11-01T06:38:54.896Z,13.00
2022-11-01T06:49:22.365Z,13.20
2022-11-01T06:59:49.756Z,9.30
2022-11-01T07:10:17.252Z,10.20
2022-11-01T07:20:44.598Z,11.20
2022-11-01T07:31:12.156Z,12.20
2022-11-01T07:41:39.679Z,11.80
2022-11-01T07:52:07.065Z,11.00
2022-11-01T08:02:34.998Z,9.40
2022-11-01T08:13:07.565Z,11.90
2022-11-01T08:23:34.865Z,11.60
2022-11-01T08:34:02.244Z,10.90
2022-11-01T08:44:29.769Z,7.40
2022-11-01T08:54:57.173Z,9.80
2022-11-01T09:05:24.637Z,11.10
2022-11-01T09:15:52.699Z,11.00
2022-11-01T09:26:20.171Z,10.50
2022-11-01T09:36:47.831Z,10.50
2022-11-01T09:47:20.566Z,9.50
2022-11-01T09:57:54.503Z,8.50
2022-11-01T10:08:37.062Z,9.90
2022-11-01T10:19:11.551Z,10.10
2022-11-01T10:29:47.453Z,9.10
2022-11-01T10:40:21.033Z,10.90
2022-11-01T10:50:49.181Z,10.30
2022-11-01T11:01:22.066Z,8.40
2022-11-01T11:11:50.988Z,13.40
2022-11-01T11:22:18.608Z,9.30
2022-11-01T11:32:50.568Z,12.80
2022-11-01T11:43:24.295Z,12.80
2022-11-01T11:54:22.412Z,11.00
2022-11-01T12:04:55.242Z,10.70
2022-11-01T12:15:31.061Z,9.40
2022-11-01T12:26:01.307Z,10.20
2022-11-01T12:36:32.781Z,9.00
2022-11-01T12:47:05.629Z,9.00
2022-11-01T12:57:34.925Z,14.80
2022-11-01T13:08:13.866Z,11.30
2022-11-01T13:18:48.977Z,10.30
2022-11-01T13:29:23.062Z,10.50
2022-11-01T13:40:04.721Z,12.60
2022-11-01T13:51:01.485Z,9.90
2022-11-01T14:01:36.500Z,11.90
2022-11-01T14:12:31.073Z,8.80
2022-11-01T14:22:59.816Z,9.90
2022-11-01T14:33:27.271Z,10.80
2022-11-01T14:54:43.393Z,14.10
2022-11-01T15:05:15.315Z,14.30
2022-11-01T15:15:42.745Z,35.00
2022-11-01T15:26:13.346Z,11.30
2022-11-01T15:36:41.788Z,15.20
2022-11-01T15:47:15.858Z,15.60
2022-11-01T15:57:47.005Z,16.20
2022-11-01T16:08:22.821Z,21.90
2022-11-01T16:18:50.363Z,20.70
2022-11-01T16:29:18.240Z,23.90
2022-11-01T16:39:47.052Z,27.30
2022-11-01T16:50:20.002Z,23.80
2022-11-01T17:00:54.702Z,24.00
2022-11-01T17:11:22.461Z,19.70
2022-11-01T17:21:50.518Z,16.80
2022-11-01T17:32:17.882Z,24.80
2022-11-01T17:42:45.226Z,23.00
2022-11-01T17:53:21.735Z,25.90
2022-11-01T18:03:49.437Z,16.30
2022-11-01T18:14:20.810Z,16.70
2022-11-01T18:24:52.825Z,22.10
2022-11-01T18:35:31.905Z,18.90
2022-11-01T18:56:51.720Z,24.10
2022-11-01T19:07:21.653Z,24.90
2022-11-01T19:17:53.160Z,21.50
2022-11-01T19:28:27.751Z,20.60
2022-11-01T19:38:55.703Z,23.20
2022-11-01T19:49:26.285Z,31.30
2022-11-01T19:59:53.889Z,36.30
2022-11-01T20:10:21.227Z,32.20
2022-11-01T20:20:48.544Z,28.40
2022-11-01T20:31:15.830Z,25.70
2022-11-01T20:41:43.176Z,24.90
2022-11-01T20:52:38.135Z,34.00
2022-11-01T21:02:58.989Z,29.90
2022-11-01T21:13:30.224Z,32.50
2022-11-01T21:23:58.581Z,29.10
2022-11-01T21:34:32.073Z,23.50
2022-11-01T21:44:59.980Z,26.70
2022-11-01T21:55:27.313Z,24.00
2022-11-01T22:05:55.084Z,27.50
2022-11-01T22:16:22.688Z,25.40
2022-11-01T22:26:50.013Z,33.70
2022-11-01T22:37:17.300Z,30.30
2022-11-01T22:47:46.134Z,26.40
2022-11-01T22:58:32.524Z,27.60
2022-11-01T23:09:05.583Z,25.30
2022-11-01T23:19:33.628Z,25.50
2022-11-01T23:30:02.704Z,28.60
2022-11-01T23:40:34.676Z,27.00
2022-11-01T23:51:02.152Z,28.40
